Aeroporto :
LOGIN :

Iscrizione | Disclaimer

   EN    FR    IT 

 










Sommario :    VFR   VFR Marginale   IFR   IFR Intensivo   IFR Molto Intensivo
Visibilità : 
Base nubi : 
>= 8 km
>= 3000ft
5 / 8 km
1000 / 3000 ft
1500m / 5 km
500 / 1000 ft
800 / 1500m
200 / 500 ft
< 800m
< 200 ft
Simboli :   Temporali  Nebbia  Neve Forte  Precipitazioni Forti  Vento > 20 kt
SIGMETs :   Varie  Temporali  Ghiacco  Turbolenza  Onda orograficha  Ceneri Vulcaniche






- Altitudine del aeroporto : 587 ft
- Codice IATA : XCR


LFOK - Chalons Vatry

ULTIMO METAR :
  • 141700Z AUTO 09007KT 9999 FEW018 BKN025 BKN076 05/05 Q0999 TEMPO 4000 RADZ OVC004

METARs OBSOLETI :
  • 141630Z AUTO 08009KT 9999 BKN021 OVC026 05/05 Q0999 TEMPO 4000 RADZ OVC004
  • 141600Z AUTO 08009KT 9999 OVC024 06/05 Q0999 TEMPO 4000 RADZ OVC004
  • 141430Z AUTO 13004KT 9999 SCT012 OVC021 06/04 Q0999 BECMG OVC012

TAF TAF LFOK
Valido dal 14 a 12 ore il 15 a 12 ore UTC


141100Z 1412/1512 18012KT 9999 BKN018
BECMG 1414/1417 VRB02KT OVC012
TEMPO 1417/1512 4000 RADZ OVC004



MetMap, La meteo Aeronautica in un colpo d'occhio ! - Copyright ORBIFLY Dicembre 2007 - Disclaimer

ORBIFLY MET'MAP TEAM :

Programmazione e sviluppo : Alexandra Zaïnal
Concezione e sviluppo : Baudouin d'Aumeries
Co-Programmazione e sviluppo : Marc-Olivier Méhu
Supporto tecnico e logistico : Manuel Goepfert
Aiuto per la traduzione : Arnaldo La Scala

Contatto : metmap@orbifly.com




FONTI E CREDITI :

   NOAA